sensor_id;sensor_type;location;lat;lon;timestamp;pressure;altitude;pressure_sealevel;temperature;humidity
46836;BME280;32573;51.290;6.926;2022-08-03T00:02:17;100169.38;;;20.97;100.00
46836;BME280;32573;51.290;6.926;2022-08-03T00:04:46;100172.91;;;20.96;100.00
46836;BME280;32573;51.290;6.926;2022-08-03T00:07:15;100172.97;;;20.95;100.00
46836;BME280;32573;51.290;6.926;2022-08-03T00:09:45;100164.13;;;20.93;100.00
46836;BME280;32573;51.290;6.926;2022-08-03T00:12:13;100161.50;;;20.89;100.00
46836;BME280;32573;51.290;6.926;2022-08-03T00:14:42;100165.09;;;20.87;100.00
46836;BME280;32573;51.290;6.926;2022-08-03T00:17:10;100169.56;;;20.85;100.00
46836;BME280;32573;51.290;6.926;2022-08-03T00:19:38;100167.78;;;20.84;100.00
46836;BME280;32573;51.290;6.926;2022-08-03T00:22:07;100157.16;;;20.82;100.00
46836;BME280;32573;51.290;6.926;2022-08-03T00:24:35;100156.31;;;20.80;100.00
46836;BME280;32573;51.290;6.926;2022-08-03T00:27:05;100158.97;;;20.80;100.00
46836;BME280;32573;51.290;6.926;2022-08-03T00:29:33;100156.31;;;20.79;100.00
46836;BME280;32573;51.290;6.926;2022-08-03T00:32:22;100153.69;;;20.77;100.00
46836;BME280;32573;51.290;6.926;2022-08-03T00:34:51;100154.56;;;20.76;100.00
46836;BME280;32573;51.290;6.926;2022-08-03T00:37:25;100150.16;;;20.75;100.00
46836;BME280;32573;51.290;6.926;2022-08-03T00:40:10;100151.06;;;20.74;100.00
46836;BME280;32573;51.290;6.926;2022-08-03T00:42:51;100152.88;;;20.71;100.00
46836;BME280;32573;51.290;6.926;2022-08-03T00:45:23;100148.50;;;20.68;100.00
46836;BME280;32573;51.290;6.926;2022-08-03T00:47:52;100148.53;;;20.65;100.00
46836;BME280;32573;51.290;6.926;2022-08-03T00:50:22;100150.34;;;20.63;100.00
46836;BME280;32573;51.290;6.926;2022-08-03T00:52:51;100146.81;;;20.61;100.00
46836;BME280;32573;51.290;6.926;2022-08-03T00:55:21;100151.25;;;20.59;100.00
46836;BME280;32573;51.290;6.926;2022-08-03T00:57:51;100148.66;;;20.56;100.00
46836;BME280;32573;51.290;6.926;2022-08-03T01:00:21;100148.66;;;20.53;100.00
46836;BME280;32573;51.290;6.926;2022-08-03T01:02:51;100151.38;;;20.50;100.00
46836;BME280;32573;51.290;6.926;2022-08-03T01:05:20;100146.06;;;20.48;100.00
46836;BME280;32573;51.290;6.926;2022-08-03T01:07:59;100145.19;;;20.46;100.00
46836;BME280;32573;51.290;6.926;2022-08-03T01:10:36;100143.47;;;20.43;100.00
46836;BME280;32573;51.290;6.926;2022-08-03T01:13:25;100138.19;;;20.40;100.00
46836;BME280;32573;51.290;6.926;2022-08-03T01:16:19;100139.09;;;20.38;100.00
46836;BME280;32573;51.290;6.926;2022-08-03T01:19:16;100142.69;;;20.35;100.00
46836;BME280;32573;51.290;6.926;2022-08-03T01:21:58;100144.47;;;20.35;100.00
46836;BME280;32573;51.290;6.926;2022-08-03T01:24:39;100143.59;;;20.33;100.00
46836;BME280;32573;51.290;6.926;2022-08-03T01:27:13;100138.34;;;20.30;100.00
46836;BME280;32573;51.290;6.926;2022-08-03T01:30:01;100135.69;;;20.28;100.00
46836;BME280;32573;51.290;6.926;2022-08-03T01:32:40;100135.72;;;20.25;100.00
46836;BME280;32573;51.290;6.926;2022-08-03T01:35:32;100135.72;;;20.23;100.00
46836;BME280;32573;51.290;6.926;2022-08-03T01:38:10;100135.78;;;20.22;100.00
46836;BME280;32573;51.290;6.926;2022-08-03T01:40:41;100134.00;;;20.21;100.00
46836;BME280;32573;51.290;6.926;2022-08-03T01:43:15;100139.34;;;20.19;100.00
46836;BME280;32573;51.290;6.926;2022-08-03T01:46:06;100136.69;;;20.18;100.00
46836;BME280;32573;51.290;6.926;2022-08-03T01:48:37;100126.09;;;20.15;100.00
46836;BME280;32573;51.290;6.926;2022-08-03T01:51:08;100128.75;;;20.13;100.00
46836;BME280;32573;51.290;6.926;2022-08-03T01:53:37;100126.13;;;20.12;100.00
46836;BME280;32573;51.290;6.926;2022-08-03T01:56:09;100126.16;;;20.09;100.00
46836;BME280;32573;51.290;6.926;2022-08-03T01:58:39;100127.94;;;20.07;100.00
46836;BME280;32573;51.290;6.926;2022-08-03T02:01:11;100122.66;;;20.05;100.00
46836;BME280;32573;51.290;6.926;2022-08-03T02:03:43;100123.59;;;20.01;100.00
46836;BME280;32573;51.290;6.926;2022-08-03T02:06:29;100125.41;;;19.97;100.00
46836;BME280;32573;51.290;6.926;2022-08-03T02:09:20;100120.97;;;19.96;100.00
46836;BME280;32573;51.290;6.926;2022-08-03T02:11:51;100124.56;;;19.94;100.00
46836;BME280;32573;51.290;6.926;2022-08-03T02:14:21;100130.78;;;19.93;100.00
46836;BME280;32573;51.290;6.926;2022-08-03T02:16:53;100133.44;;;19.91;100.00
46836;BME280;32573;51.290;6.926;2022-08-03T02:19:23;100123.72;;;19.90;100.00
46836;BME280;32573;51.290;6.926;2022-08-03T02:21:59;100130.81;;;19.88;100.00
46836;BME280;32573;51.290;6.926;2022-08-03T02:24:28;100121.97;;;19.86;100.00
46836;BME280;32573;51.290;6.926;2022-08-03T02:26:58;100125.56;;;19.83;100.00
46836;BME280;32573;51.290;6.926;2022-08-03T02:29:31;100122.94;;;19.82;100.00
46836;BME280;32573;51.290;6.926;2022-08-03T02:32:13;100130.91;;;19.80;100.00
46836;BME280;32573;51.290;6.926;2022-08-03T02:34:46;100130.94;;;19.76;100.00
46836;BME280;32573;51.290;6.926;2022-08-03T02:37:17;100135.38;;;19.74;100.00
46836;BME280;32573;51.290;6.926;2022-08-03T02:39:48;100123.91;;;19.72;100.00
46836;BME280;32573;51.290;6.926;2022-08-03T02:42:20;100121.25;;;19.72;100.00
46836;BME280;32573;51.290;6.926;2022-08-03T02:44:50;100119.50;;;19.71;100.00
46836;BME280;32573;51.290;6.926;2022-08-03T02:47:22;100121.28;;;19.69;100.00
46836;BME280;32573;51.290;6.926;2022-08-03T02:49:54;100116.00;;;19.67;100.00
46836;BME280;32573;51.290;6.926;2022-08-03T02:52:27;100115.09;;;19.65;100.00
46836;BME280;32573;51.290;6.926;2022-08-03T02:54:58;100116.88;;;19.63;100.00
46836;BME280;32573;51.290;6.926;2022-08-03T02:57:27;100111.56;;;19.61;100.00
46836;BME280;32573;51.290;6.926;2022-08-03T02:59:58;100118.66;;;19.61;100.00
46836;BME280;32573;51.290;6.926;2022-08-03T03:02:30;100116.03;;;19.59;100.00
46836;BME280;32573;51.290;6.926;2022-08-03T03:04:59;100113.38;;;19.58;100.00
46836;BME280;32573;51.290;6.926;2022-08-03T03:07:48;100116.97;;;19.57;100.00
46836;BME280;32573;51.290;6.926;2022-08-03T03:10:20;100109.88;;;19.56;100.00
46836;BME280;32573;51.290;6.926;2022-08-03T03:12:50;100115.19;;;19.54;100.00
46836;BME280;32573;51.290;6.926;2022-08-03T03:15:19;100121.41;;;19.55;100.00
46836;BME280;32573;51.290;6.926;2022-08-03T03:17:50;100117.84;;;19.54;100.00
46836;BME280;32573;51.290;6.926;2022-08-03T03:20:21;100120.53;;;19.53;100.00
46836;BME280;32573;51.290;6.926;2022-08-03T03:22:57;100128.50;;;19.51;100.00
46836;BME280;32573;51.290;6.926;2022-08-03T03:25:27;100125.88;;;19.50;100.00
46836;BME280;32573;51.290;6.926;2022-08-03T03:27:58;100128.53;;;19.48;100.00
46836;BME280;32573;51.290;6.926;2022-08-03T03:30:27;100131.19;;;19.47;100.00
46836;BME280;32573;51.290;6.926;2022-08-03T03:32:57;100132.97;;;19.46;100.00
46836;BME280;32573;51.290;6.926;2022-08-03T03:35:27;100127.69;;;19.45;100.00
46836;BME280;32573;51.290;6.926;2022-08-03T03:37:55;100129.44;;;19.44;100.00
46836;BME280;32573;51.290;6.926;2022-08-03T03:40:24;100127.69;;;19.43;100.00
46836;BME280;32573;51.290;6.926;2022-08-03T03:42:52;100127.69;;;19.42;100.00
46836;BME280;32573;51.290;6.926;2022-08-03T03:45:22;100125.06;;;19.40;100.00
46836;BME280;32573;51.290;6.926;2022-08-03T03:47:51;100127.72;;;19.38;100.00
46836;BME280;32573;51.290;6.926;2022-08-03T03:50:21;100128.59;;;19.39;100.00
46836;BME280;32573;51.290;6.926;2022-08-03T03:52:51;100122.44;;;19.37;100.00
46836;BME280;32573;51.290;6.926;2022-08-03T03:55:19;100126.88;;;19.35;100.00
46836;BME280;32573;51.290;6.926;2022-08-03T03:57:47;100124.22;;;19.32;100.00
46836;BME280;32573;51.290;6.926;2022-08-03T04:00:17;100119.81;;;19.31;100.00
46836;BME280;32573;51.290;6.926;2022-08-03T04:02:46;100130.47;;;19.28;100.00
46836;BME280;32573;51.290;6.926;2022-08-03T04:05:15;100129.59;;;19.26;100.00
46836;BME280;32573;51.290;6.926;2022-08-03T04:08:04;100131.38;;;19.25;100.00
46836;BME280;32573;51.290;6.926;2022-08-03T04:10:55;100143.78;;;19.23;100.00
46836;BME280;32573;51.290;6.926;2022-08-03T04:13:33;100126.09;;;19.21;100.00
46836;BME280;32573;51.290;6.926;2022-08-03T04:16:03;100127.00;;;19.20;100.00
46836;BME280;32573;51.290;6.926;2022-08-03T04:18:33;100133.19;;;19.18;100.00
46836;BME280;32573;51.290;6.926;2022-08-03T04:21:05;100131.44;;;19.16;100.00
46836;BME280;32573;51.290;6.926;2022-08-03T04:23:40;100128.78;;;19.16;100.00
46836;BME280;32573;51.290;6.926;2022-08-03T04:26:12;100127.06;;;19.13;100.00
46836;BME280;32573;51.290;6.926;2022-08-03T04:28:43;100138.53;;;19.14;100.00
46836;BME280;32573;51.290;6.926;2022-08-03T04:31:16;100135.00;;;19.12;100.00
46836;BME280;32573;51.290;6.926;2022-08-03T04:33:45;100138.56;;;19.11;100.00
46836;BME280;32573;51.290;6.926;2022-08-03T04:36:16;100135.91;;;19.09;100.00
46836;BME280;32573;51.290;6.926;2022-08-03T04:38:54;100139.47;;;19.08;100.00
46836;BME280;32573;51.290;6.926;2022-08-03T04:41:25;100134.16;;;19.08;100.00
46836;BME280;32573;51.290;6.926;2022-08-03T04:43:57;100134.16;;;19.08;100.00
46836;BME280;32573;51.290;6.926;2022-08-03T04:46:29;100143.03;;;19.07;100.00
46836;BME280;32573;51.290;6.926;2022-08-03T04:49:00;100140.38;;;19.07;100.00
46836;BME280;32573;51.290;6.926;2022-08-03T04:51:28;100145.69;;;19.07;100.00
46836;BME280;32573;51.290;6.926;2022-08-03T04:54:00;100147.44;;;19.07;100.00
46836;BME280;32573;51.290;6.926;2022-08-03T04:56:29;100143.88;;;19.09;100.00
46836;BME280;32573;51.290;6.926;2022-08-03T04:58:57;100143.00;;;19.09;100.00
46836;BME280;32573;51.290;6.926;2022-08-03T05:01:26;100143.00;;;19.09;100.00
46836;BME280;32573;51.290;6.926;2022-08-03T05:03:55;100146.53;;;19.09;100.00
46836;BME280;32573;51.290;6.926;2022-08-03T05:06:23;100154.50;;;19.09;100.00
46836;BME280;32573;51.290;6.926;2022-08-03T05:08:51;100147.44;;;19.10;100.00
46836;BME280;32573;51.290;6.926;2022-08-03T05:11:21;100138.56;;;19.09;100.00
46836;BME280;32573;51.290;6.926;2022-08-03T05:13:50;100139.44;;;19.11;100.00
46836;BME280;32573;51.290;6.926;2022-08-03T05:16:18;100146.53;;;19.12;100.00
46836;BME280;32573;51.290;6.926;2022-08-03T05:18:46;100148.28;;;19.13;100.00
46836;BME280;32573;51.290;6.926;2022-08-03T05:21:15;100153.56;;;19.16;100.00
46836;BME280;32573;51.290;6.926;2022-08-03T05:23:43;100156.22;;;19.18;100.00
46836;BME280;32573;51.290;6.926;2022-08-03T05:26:12;100150.91;;;19.20;100.00
46836;BME280;32573;51.290;6.926;2022-08-03T05:28:42;100148.22;;;19.23;100.00
46836;BME280;32573;51.290;6.926;2022-08-03T05:31:17;100160.59;;;19.25;100.00
46836;BME280;32573;51.290;6.926;2022-08-03T05:33:46;100153.47;;;19.29;100.00
46836;BME280;32573;51.290;6.926;2022-08-03T05:36:15;100153.44;;;19.32;100.00
46836;BME280;32573;51.290;6.926;2022-08-03T05:38:44;100154.31;;;19.35;100.00
46836;BME280;32573;51.290;6.926;2022-08-03T05:41:12;100151.63;;;19.40;100.00
46836;BME280;32573;51.290;6.926;2022-08-03T05:43:51;100149.81;;;19.45;100.00
46836;BME280;32573;51.290;6.926;2022-08-03T05:46:21;100159.47;;;19.51;100.00
46836;BME280;32573;51.290;6.926;2022-08-03T05:48:49;100155.00;;;19.54;100.00
46836;BME280;32573;51.290;6.926;2022-08-03T05:51:18;100155.88;;;19.59;100.00
46836;BME280;32573;51.290;6.926;2022-08-03T05:53:47;100151.41;;;19.65;100.00
46836;BME280;32573;51.290;6.926;2022-08-03T05:56:15;100156.69;;;19.71;100.00
46836;BME280;32573;51.290;6.926;2022-08-03T05:58:44;100148.66;;;19.75;100.00
46836;BME280;32573;51.290;6.926;2022-08-03T06:01:15;100150.38;;;19.81;100.00
46836;BME280;32573;51.290;6.926;2022-08-03T06:03:44;100149.47;;;19.85;100.00
46836;BME280;32573;51.290;6.926;2022-08-03T06:06:13;100139.63;;;19.92;100.00
46836;BME280;32573;51.290;6.926;2022-08-03T06:08:42;100142.25;;;19.96;100.00
46836;BME280;32573;51.290;6.926;2022-08-03T06:11:11;100145.72;;;20.03;100.00
46836;BME280;32573;51.290;6.926;2022-08-03T06:13:39;100150.94;;;20.11;100.00
46836;BME280;32573;51.290;6.926;2022-08-03T06:16:08;100149.09;;;20.17;100.00
46836;BME280;32573;51.290;6.926;2022-08-03T06:18:38;100149.03;;;20.25;100.00
46836;BME280;32573;51.290;6.926;2022-08-03T06:21:07;100141.88;;;20.30;100.00
46836;BME280;32573;51.290;6.926;2022-08-03T06:23:43;100158.59;;;20.38;100.00
46836;BME280;32573;51.290;6.926;2022-08-03T06:26:22;100164.72;;;20.45;100.00
46836;BME280;32573;51.290;6.926;2022-08-03T06:28:51;100157.53;;;20.52;100.00
46836;BME280;32573;51.290;6.926;2022-08-03T06:31:22;100149.53;;;20.58;100.00
46836;BME280;32573;51.290;6.926;2022-08-03T06:34:04;100157.38;;;20.67;100.00
46836;BME280;32573;51.290;6.926;2022-08-03T06:36:52;100159.94;;;20.75;100.00
46836;BME280;32573;51.290;6.926;2022-08-03T06:39:28;100166.00;;;20.84;100.00
46836;BME280;32573;51.290;6.926;2022-08-03T06:41:56;100161.47;;;20.91;100.00
46836;BME280;32573;51.290;6.926;2022-08-03T06:44:25;100164.00;;;20.99;100.00
46836;BME280;32573;51.290;6.926;2022-08-03T06:46:53;100168.38;;;21.04;100.00
46836;BME280;32573;51.290;6.926;2022-08-03T06:49:23;100161.22;;;21.09;100.00
46836;BME280;32573;51.290;6.926;2022-08-03T06:51:52;100155.78;;;21.16;100.00
46836;BME280;32573;51.290;6.926;2022-08-03T06:54:35;100164.56;;;21.22;100.00
46836;BME280;32573;51.290;6.926;2022-08-03T06:57:04;100157.31;;;21.30;100.00
46836;BME280;32573;51.290;6.926;2022-08-03T06:59:34;100155.47;;;21.36;100.00
46836;BME280;32573;51.290;6.926;2022-08-03T07:02:22;100157.16;;;21.43;100.00
46836;BME280;32573;51.290;6.926;2022-08-03T07:04:55;100168.53;;;21.51;100.00
46836;BME280;32573;51.290;6.926;2022-08-03T07:07:24;100164.94;;;21.55;100.00
46836;BME280;32573;51.290;6.926;2022-08-03T07:09:52;100163.06;;;21.60;100.00
46836;BME280;32573;51.290;6.926;2022-08-03T07:12:25;100163.81;;;21.68;100.00
46836;BME280;32573;51.290;6.926;2022-08-03T07:14:55;100168.13;;;21.75;100.00
46836;BME280;32573;51.290;6.926;2022-08-03T07:17:28;100169.78;;;21.83;100.00
46836;BME280;32573;51.290;6.926;2022-08-03T07:19:58;100174.97;;;21.90;100.00
46836;BME280;32573;51.290;6.926;2022-08-03T07:22:27;100183.75;;;21.97;100.00
46836;BME280;32573;51.290;6.926;2022-08-03T07:24:56;100173.81;;;22.04;100.00
46836;BME280;32573;51.290;6.926;2022-08-03T07:27:24;100175.47;;;22.11;100.00
46836;BME280;32573;51.290;6.926;2022-08-03T07:29:55;100176.22;;;22.19;100.00
46836;BME280;32573;51.290;6.926;2022-08-03T07:32:24;100183.19;;;22.26;100.00
46836;BME280;32573;51.290;6.926;2022-08-03T07:34:53;100177.69;;;22.34;100.00
46836;BME280;32573;51.290;6.926;2022-08-03T07:37:29;100188.19;;;22.43;100.00
46836;BME280;32573;51.290;6.926;2022-08-03T07:39:58;100179.16;;;22.50;100.00
46836;BME280;32573;51.290;6.926;2022-08-03T07:42:26;100174.53;;;22.58;100.00
46836;BME280;32573;51.290;6.926;2022-08-03T07:44:56;100178.81;;;22.66;100.00
46836;BME280;32573;51.290;6.926;2022-08-03T07:47:25;100176.00;;;22.73;100.00
46836;BME280;32573;51.290;6.926;2022-08-03T07:50:04;100182.09;;;22.80;100.00
46836;BME280;32573;51.290;6.926;2022-08-03T07:52:36;100173.97;;;22.85;100.00
46836;BME280;32573;51.290;6.926;2022-08-03T07:55:19;100179.13;;;22.92;100.00
46836;BME280;32573;51.290;6.926;2022-08-03T07:57:58;100183.47;;;22.99;100.00
46836;BME280;32573;51.290;6.926;2022-08-03T08:00:27;100176.22;;;23.04;100.00
46836;BME280;32573;51.290;6.926;2022-08-03T08:02:55;100166.31;;;23.10;100.00
46836;BME280;32573;51.290;6.926;2022-08-03T08:05:24;100178.63;;;23.15;100.00
46836;BME280;32573;51.290;6.926;2022-08-03T08:07:55;100174.13;;;23.19;100.00
46836;BME280;32573;51.290;6.926;2022-08-03T08:10:23;100173.97;;;23.23;100.00
46836;BME280;32573;51.290;6.926;2022-08-03T08:12:52;100172.97;;;23.29;100.00
46836;BME280;32573;51.290;6.926;2022-08-03T08:15:20;100170.16;;;23.35;100.00
46836;BME280;32573;51.290;6.926;2022-08-03T08:17:51;100174.44;;;23.41;100.00
46836;BME280;32573;51.290;6.926;2022-08-03T08:20:21;100178.78;;;23.46;100.00
46836;BME280;32573;51.290;6.926;2022-08-03T08:22:59;100170.59;;;23.53;100.00
46836;BME280;32573;51.290;6.926;2022-08-03T08:25:30;100174.00;;;23.59;100.00
46836;BME280;32573;51.290;6.926;2022-08-03T08:27:59;100172.03;;;23.66;100.00
46836;BME280;32573;51.290;6.926;2022-08-03T08:30:49;100175.47;;;23.73;100.00
46836;BME280;32573;51.290;6.926;2022-08-03T08:33:18;100176.19;;;23.79;100.00
46836;BME280;32573;51.290;6.926;2022-08-03T08:35:51;100174.19;;;23.87;100.00
46836;BME280;32573;51.290;6.926;2022-08-03T08:38:21;100165.09;;;23.95;100.00
46836;BME280;32573;51.290;6.926;2022-08-03T08:40:50;100160.41;;;24.03;100.00
46836;BME280;32573;51.290;6.926;2022-08-03T08:43:21;100167.34;;;24.10;100.00
46836;BME280;32573;51.290;6.926;2022-08-03T08:45:53;100168.09;;;24.15;100.00
46836;BME280;32573;51.290;6.926;2022-08-03T08:48:24;100164.34;;;24.21;100.00
46836;BME280;32573;51.290;6.926;2022-08-03T08:50:53;100171.34;;;24.26;100.00
46836;BME280;32573;51.290;6.926;2022-08-03T08:53:25;100173.81;;;24.34;100.00
46836;BME280;32573;51.290;6.926;2022-08-03T08:55:58;100163.88;;;24.38;100.00
46836;BME280;32573;51.290;6.926;2022-08-03T08:58:28;100171.72;;;24.45;100.00
46836;BME280;32573;51.290;6.926;2022-08-03T09:00:57;100163.56;;;24.50;100.00
46836;BME280;32573;51.290;6.926;2022-08-03T09:03:26;100158.91;;;24.57;100.00
46836;BME280;32573;51.290;6.926;2022-08-03T09:05:58;100166.72;;;24.64;100.00
46836;BME280;32573;51.290;6.926;2022-08-03T09:08:30;100164.69;;;24.71;100.00
46836;BME280;32573;51.290;6.926;2022-08-03T09:10:59;100166.34;;;24.77;100.00
46836;BME280;32573;51.290;6.926;2022-08-03T09:13:27;100168.78;;;24.84;100.00
46836;BME280;32573;51.290;6.926;2022-08-03T09:16:11;100173.06;;;24.90;100.00
46836;BME280;32573;51.290;6.926;2022-08-03T09:18:40;100165.66;;;24.98;100.00
46836;BME280;32573;51.290;6.926;2022-08-03T09:21:17;100166.38;;;25.03;100.00
46836;BME280;32573;51.290;6.926;2022-08-03T09:24:02;100169.78;;;25.08;100.00
46836;BME280;32573;51.290;6.926;2022-08-03T09:26:35;100165.16;;;25.13;100.00
46836;BME280;32573;51.290;6.926;2022-08-03T09:29:06;100164.19;;;25.17;100.00
46836;BME280;32573;51.290;6.926;2022-08-03T09:31:42;100166.75;;;25.21;100.00
46836;BME280;32573;51.290;6.926;2022-08-03T09:34:12;100159.38;;;25.29;100.00
46836;BME280;32573;51.290;6.926;2022-08-03T09:36:42;100172.59;;;25.33;100.00
46836;BME280;32573;51.290;6.926;2022-08-03T09:39:15;100164.41;;;25.38;100.00
46836;BME280;32573;51.290;6.926;2022-08-03T09:41:45;100167.81;;;25.43;100.00
46836;BME280;32573;51.290;6.926;2022-08-03T09:44:14;100164.00;;;25.50;100.00
46836;BME280;32573;51.290;6.926;2022-08-03T09:46:53;100167.28;;;25.58;100.00
46836;BME280;32573;51.290;6.926;2022-08-03T09:49:23;100157.91;;;25.72;100.00
46836;BME280;32573;51.290;6.926;2022-08-03T09:51:52;100168.31;;;25.81;100.00
46836;BME280;32573;51.290;6.926;2022-08-03T09:54:43;100171.66;;;25.89;100.00
46836;BME280;32573;51.290;6.926;2022-08-03T09:57:22;100164.19;;;25.97;100.00
46836;BME280;32573;51.290;6.926;2022-08-03T09:59:51;100165.72;;;26.04;100.00
46836;BME280;32573;51.290;6.926;2022-08-03T10:02:39;100164.63;;;26.10;100.00
46836;BME280;32573;51.290;6.926;2022-08-03T10:05:09;100159.91;;;26.17;100.00
46836;BME280;32573;51.290;6.926;2022-08-03T10:07:47;100164.19;;;26.22;100.00
46836;BME280;32573;51.290;6.926;2022-08-03T10:10:17;100162.31;;;26.24;100.00
46836;BME280;32573;51.290;6.926;2022-08-03T10:12:58;100163.06;;;26.28;100.00
46836;BME280;32573;51.290;6.926;2022-08-03T10:15:27;100160.09;;;26.36;100.00
46836;BME280;32573;51.290;6.926;2022-08-03T10:18:15;100155.38;;;26.42;100.00
46836;BME280;32573;51.290;6.926;2022-08-03T10:20:49;100151.53;;;26.50;100.00
46836;BME280;32573;51.290;6.926;2022-08-03T10:23:20;100157.59;;;26.56;100.00
46836;BME280;32573;51.290;6.926;2022-08-03T10:25:53;100153.75;;;26.63;100.00
46836;BME280;32573;51.290;6.926;2022-08-03T10:28:26;100145.44;;;26.70;100.00
46836;BME280;32573;51.290;6.926;2022-08-03T10:31:00;100146.16;;;26.73;100.00
46836;BME280;32573;51.290;6.926;2022-08-03T10:33:34;100146.78;;;26.81;100.00
46836;BME280;32573;51.290;6.926;2022-08-03T10:36:20;100133.75;;;26.93;100.00
46836;BME280;32573;51.290;6.926;2022-08-03T10:38:51;100131.63;;;27.01;100.00
46836;BME280;32573;51.290;6.926;2022-08-03T10:41:25;100130.22;;;27.14;100.00
46836;BME280;32573;51.290;6.926;2022-08-03T10:43:57;100131.84;;;27.18;100.00
46836;BME280;32573;51.290;6.926;2022-08-03T10:46:26;100132.44;;;27.26;100.00
46836;BME280;32573;51.290;6.926;2022-08-03T10:48:56;100130.25;;;27.36;100.00
46836;BME280;32573;51.290;6.926;2022-08-03T10:51:26;100126.28;;;27.45;100.00
46836;BME280;32573;51.290;6.926;2022-08-03T10:53:58;100125.06;;;27.52;100.00
46836;BME280;32573;51.290;6.926;2022-08-03T10:56:38;100122.25;;;27.55;100.00
46836;BME280;32573;51.290;6.926;2022-08-03T10:59:58;100118.16;;;27.67;100.00
46836;BME280;32573;51.290;6.926;2022-08-03T11:03:01;100119.56;;;27.75;100.00
46836;BME280;32573;51.290;6.926;2022-08-03T11:05:31;100114.94;;;27.79;100.00
46836;BME280;32573;51.290;6.926;2022-08-03T11:08:25;100111.25;;;27.82;100.00
46836;BME280;32573;51.290;6.926;2022-08-03T11:10:57;100110.91;;;27.89;100.00
46836;BME280;32573;51.290;6.926;2022-08-03T11:13:28;100114.22;;;27.96;100.00
46836;BME280;32573;51.290;6.926;2022-08-03T11:16:02;100105.84;;;28.02;100.00
46836;BME280;32573;51.290;6.926;2022-08-03T11:18:34;100106.47;;;28.09;100.00
46836;BME280;32573;51.290;6.926;2022-08-03T11:21:03;100104.50;;;28.12;100.00
46836;BME280;32573;51.290;6.926;2022-08-03T11:23:40;100096.25;;;28.15;100.00
46836;BME280;32573;51.290;6.926;2022-08-03T11:26:29;100100.88;;;28.32;100.00
46836;BME280;32573;51.290;6.926;2022-08-03T11:29:26;100103.22;;;28.40;100.00
46836;BME280;32573;51.290;6.926;2022-08-03T11:31:54;100100.13;;;28.49;100.00
46836;BME280;32573;51.290;6.926;2022-08-03T11:34:23;100101.22;;;28.64;100.00
46836;BME280;32573;51.290;6.926;2022-08-03T11:37:20;100103.59;;;28.70;100.00
46836;BME280;32573;51.290;6.926;2022-08-03T11:39:52;100098.81;;;28.77;100.00
46836;BME280;32573;51.290;6.926;2022-08-03T11:42:43;100100.25;;;28.84;100.00
46836;BME280;32573;51.290;6.926;2022-08-03T11:45:16;100102.56;;;28.92;100.00
46836;BME280;32573;51.290;6.926;2022-08-03T11:47:46;100100.31;;;29.01;100.00
46836;BME280;32573;51.290;6.926;2022-08-03T11:50:18;100097.25;;;29.09;100.00
46836;BME280;32573;51.290;6.926;2022-08-03T11:52:48;100094.09;;;29.18;100.00
46836;BME280;32573;51.290;6.926;2022-08-03T11:55:18;100097.34;;;29.25;100.00
46836;BME280;32573;51.290;6.926;2022-08-03T11:57:48;100095.78;;;29.38;100.00
46836;BME280;32573;51.290;6.926;2022-08-03T12:00:38;100095.63;;;29.41;100.00
46836;BME280;32573;51.290;6.926;2022-08-03T12:03:09;100089.03;;;29.47;100.00
46836;BME280;32573;51.290;6.926;2022-08-03T12:05:40;100090.22;;;29.59;100.00
46836;BME280;32573;51.290;6.926;2022-08-03T12:08:29;100092.59;;;29.65;100.00
46836;BME280;32573;51.290;6.926;2022-08-03T12:11:00;100090.72;;;29.67;100.00
46836;BME280;32573;51.290;6.926;2022-08-03T12:13:36;100086.91;;;29.71;100.00
46836;BME280;32573;51.290;6.926;2022-08-03T12:16:26;100091.81;;;29.80;100.00
46836;BME280;32573;51.290;6.926;2022-08-03T12:18:56;100086.78;;;29.90;100.00
46836;BME280;32573;51.290;6.926;2022-08-03T12:21:26;100077.25;;;30.00;100.00
46836;BME280;32573;51.290;6.926;2022-08-03T12:23:58;100076.84;;;30.08;100.00
46836;BME280;32573;51.290;6.926;2022-08-03T12:26:27;100076.94;;;30.22;100.00
46836;BME280;32573;51.290;6.926;2022-08-03T12:28:56;100077.28;;;30.34;100.00
46836;BME280;32573;51.290;6.926;2022-08-03T12:31:26;100075.97;;;30.41;100.00
46836;BME280;32573;51.290;6.926;2022-08-03T12:33:59;100079.63;;;30.40;100.00
46836;BME280;32573;51.290;6.926;2022-08-03T12:36:30;100070.03;;;30.50;100.00
46836;BME280;32573;51.290;6.926;2022-08-03T12:39:00;100069.34;;;30.62;100.00
46836;BME280;32573;51.290;6.926;2022-08-03T12:41:31;100069.00;;;30.68;100.00
46836;BME280;32573;51.290;6.926;2022-08-03T12:44:01;100074.84;;;30.77;100.00
46836;BME280;32573;51.290;6.926;2022-08-03T12:46:33;100069.75;;;30.88;100.00
46836;BME280;32573;51.290;6.926;2022-08-03T12:49:04;100062.03;;;30.96;100.00
46836;BME280;32573;51.290;6.926;2022-08-03T12:51:35;100060.34;;;31.09;100.00
46836;BME280;32573;51.290;6.926;2022-08-03T12:54:05;100064.25;;;31.20;100.00
46836;BME280;32573;51.290;6.926;2022-08-03T12:56:34;100069.13;;;31.29;100.00
46836;BME280;32573;51.290;6.926;2022-08-03T12:59:22;100067.09;;;31.32;100.00
46836;BME280;32573;51.290;6.926;2022-08-03T13:02:03;100062.81;;;31.44;100.00
46836;BME280;32573;51.290;6.926;2022-08-03T13:04:35;100061.09;;;31.57;100.00
46836;BME280;32573;51.290;6.926;2022-08-03T13:07:05;100055.91;;;31.69;100.00
46836;BME280;32573;51.290;6.926;2022-08-03T13:09:41;100064.41;;;31.77;100.00
46836;BME280;32573;51.290;6.926;2022-08-03T13:12:11;100065.78;;;31.84;100.00